sensor_id;sensor_type;location;lat;lon;timestamp;pressure;altitude;pressure_sealevel;temperature;humidity
4767;BME280;2397;53.576;9.746;2023-05-16T00:00:56;101303.63;;;11.73;73.19
4767;BME280;2397;53.576;9.746;2023-05-16T00:03:23;101304.63;;;11.72;73.55
4767;BME280;2397;53.576;9.746;2023-05-16T00:05:50;101306.69;;;11.78;73.46
4767;BME280;2397;53.576;9.746;2023-05-16T00:08:17;101302.09;;;11.80;72.54
4767;BME280;2397;53.576;9.746;2023-05-16T00:10:43;101304.72;;;11.80;72.65
4767;BME280;2397;53.576;9.746;2023-05-16T00:13:10;101312.94;;;11.86;73.50
4767;BME280;2397;53.576;9.746;2023-05-16T00:15:36;101310.69;;;11.91;73.07
4767;BME280;2397;53.576;9.746;2023-05-16T00:18:04;101313.22;;;11.83;72.25
4767;BME280;2397;53.576;9.746;2023-05-16T00:20:31;101314.78;;;11.76;72.08
4767;BME280;2397;53.576;9.746;2023-05-16T00:22:57;101305.91;;;11.68;72.12
4767;BME280;2397;53.576;9.746;2023-05-16T00:25:27;101313.41;;;11.72;72.50
4767;BME280;2397;53.576;9.746;2023-05-16T00:27:54;101315.94;;;11.64;72.52
4767;BME280;2397;53.576;9.746;2023-05-16T00:30:20;101312.56;;;11.72;72.32
4767;BME280;2397;53.576;9.746;2023-05-16T00:32:50;101322.75;;;11.67;72.09
4767;BME280;2397;53.576;9.746;2023-05-16T00:35:17;101318.59;;;11.64;72.06
4767;BME280;2397;53.576;9.746;2023-05-16T00:37:43;101326.06;;;11.69;72.69
4767;BME280;2397;53.576;9.746;2023-05-16T00:40:10;101322.72;;;11.76;72.09
4767;BME280;2397;53.576;9.746;2023-05-16T00:42:37;101318.22;;;11.77;72.04
4767;BME280;2397;53.576;9.746;2023-05-16T00:45:05;101314.53;;;11.70;71.72
4767;BME280;2397;53.576;9.746;2023-05-16T00:47:32;101328.16;;;11.65;72.63
4767;BME280;2397;53.576;9.746;2023-05-16T00:50:00;101328.16;;;11.65;72.30
4767;BME280;2397;53.576;9.746;2023-05-16T00:52:27;101330.41;;;11.70;73.08
4767;BME280;2397;53.576;9.746;2023-05-16T00:54:54;101325.78;;;11.72;72.76
4767;BME280;2397;53.576;9.746;2023-05-16T00:57:21;101333.03;;;11.70;73.23
4767;BME280;2397;53.576;9.746;2023-05-16T00:59:47;101317.94;;;11.80;73.13
4767;BME280;2397;53.576;9.746;2023-05-16T01:02:16;101328.25;;;11.83;73.16
4767;BME280;2397;53.576;9.746;2023-05-16T01:04:44;101321.59;;;11.79;72.90
4767;BME280;2397;53.576;9.746;2023-05-16T01:07:11;101331.78;;;11.74;73.43
4767;BME280;2397;53.576;9.746;2023-05-16T01:09:37;101333.31;;;11.57;74.51
4767;BME280;2397;53.576;9.746;2023-05-16T01:12:14;101334.13;;;11.58;75.36
4767;BME280;2397;53.576;9.746;2023-05-16T01:14:57;101343.63;;;11.41;76.63
4767;BME280;2397;53.576;9.746;2023-05-16T01:20:21;101343.66;;;11.13;79.80
4767;BME280;2397;53.576;9.746;2023-05-16T01:23:05;101348.94;;;11.13;81.28
4767;BME280;2397;53.576;9.746;2023-05-16T01:28:06;101354.38;;;10.83;82.25
4767;BME280;2397;53.576;9.746;2023-05-16T01:30:38;101347.81;;;10.77;82.13
4767;BME280;2397;53.576;9.746;2023-05-16T01:33:07;101352.00;;;10.80;82.76
4767;BME280;2397;53.576;9.746;2023-05-16T01:35:39;101357.53;;;10.86;82.54
4767;BME280;2397;53.576;9.746;2023-05-16T01:38:15;101354.22;;;10.75;82.10
4767;BME280;2397;53.576;9.746;2023-05-16T01:40:54;101352.00;;;10.80;81.54
4767;BME280;2397;53.576;9.746;2023-05-16T01:43:32;101360.34;;;10.85;81.73
4767;BME280;2397;53.576;9.746;2023-05-16T01:46:10;101350.47;;;10.77;80.80
4767;BME280;2397;53.576;9.746;2023-05-16T01:48:43;101356.28;;;10.81;80.58
4767;BME280;2397;53.576;9.746;2023-05-16T01:51:12;101351.72;;;10.83;79.96
4767;BME280;2397;53.576;9.746;2023-05-16T01:53:39;101352.00;;;10.80;78.85
4767;BME280;2397;53.576;9.746;2023-05-16T01:56:10;101357.00;;;10.83;78.68
4767;BME280;2397;53.576;9.746;2023-05-16T01:58:40;101353.09;;;10.87;78.20
4767;BME280;2397;53.576;9.746;2023-05-16T02:01:08;101362.03;;;10.95;77.95
4767;BME280;2397;53.576;9.746;2023-05-16T02:03:36;101356.47;;;10.98;77.30
4767;BME280;2397;53.576;9.746;2023-05-16T02:06:03;101359.50;;;10.94;75.19
4767;BME280;2397;53.576;9.746;2023-05-16T02:08:30;101357.41;;;10.88;75.19
4767;BME280;2397;53.576;9.746;2023-05-16T02:10:57;101361.75;;;10.89;74.90
4767;BME280;2397;53.576;9.746;2023-05-16T02:13:23;101362.41;;;10.91;74.41
4767;BME280;2397;53.576;9.746;2023-05-16T02:15:50;101362.00;;;10.86;73.75
4767;BME280;2397;53.576;9.746;2023-05-16T02:18:17;101362.81;;;10.77;74.30
4767;BME280;2397;53.576;9.746;2023-05-16T02:20:44;101354.78;;;10.88;73.18
4767;BME280;2397;53.576;9.746;2023-05-16T02:23:10;101354.22;;;10.84;72.89
4767;BME280;2397;53.576;9.746;2023-05-16T02:25:37;101349.47;;;10.78;72.49
4767;BME280;2397;53.576;9.746;2023-05-16T02:28:04;101357.00;;;10.83;72.73
4767;BME280;2397;53.576;9.746;2023-05-16T02:30:30;101356.16;;;10.82;71.94
4767;BME280;2397;53.576;9.746;2023-05-16T02:32:57;101353.09;;;10.87;72.02
4767;BME280;2397;53.576;9.746;2023-05-16T02:35:23;101359.09;;;10.89;71.39
4767;BME280;2397;53.576;9.746;2023-05-16T02:37:50;101358.81;;;10.92;70.54
4767;BME280;2397;53.576;9.746;2023-05-16T02:40:17;101362.69;;;10.88;70.23
4767;BME280;2397;53.576;9.746;2023-05-16T02:42:43;101368.81;;;10.88;70.46
4767;BME280;2397;53.576;9.746;2023-05-16T02:45:10;101368.53;;;10.82;69.97
4767;BME280;2397;53.576;9.746;2023-05-16T02:47:37;101373.97;;;10.80;70.31
4767;BME280;2397;53.576;9.746;2023-05-16T02:50:04;101380.63;;;10.84;70.21
4767;BME280;2397;53.576;9.746;2023-05-16T02:52:32;101367.56;;;10.83;69.35
4767;BME280;2397;53.576;9.746;2023-05-16T02:54:59;101367.16;;;10.78;68.55
4767;BME280;2397;53.576;9.746;2023-05-16T02:57:45;101374.63;;;10.73;68.48
4767;BME280;2397;53.576;9.746;2023-05-16T03:00:12;101374.50;;;10.74;68.01
4767;BME280;2397;53.576;9.746;2023-05-16T03:02:42;101374.88;;;10.60;68.74
4767;BME280;2397;53.576;9.746;2023-05-16T03:05:09;101375.00;;;10.59;68.99
4767;BME280;2397;53.576;9.746;2023-05-16T03:07:37;101383.94;;;10.67;69.91
4767;BME280;2397;53.576;9.746;2023-05-16T03:10:04;101387.44;;;10.77;69.28
4767;BME280;2397;53.576;9.746;2023-05-16T03:12:31;101387.28;;;10.79;68.99
4767;BME280;2397;53.576;9.746;2023-05-16T03:14:57;101389.22;;;10.77;69.80
4767;BME280;2397;53.576;9.746;2023-05-16T03:17:24;101393.69;;;10.76;70.41
4767;BME280;2397;53.576;9.746;2023-05-16T03:19:51;101396.06;;;10.79;70.53
4767;BME280;2397;53.576;9.746;2023-05-16T03:22:18;101391.19;;;10.84;70.57
4767;BME280;2397;53.576;9.746;2023-05-16T03:24:44;101393.44;;;10.89;70.41
4767;BME280;2397;53.576;9.746;2023-05-16T03:27:11;101400.78;;;10.85;70.79
4767;BME280;2397;53.576;9.746;2023-05-16T03:29:37;101394.50;;;10.86;69.81
4767;BME280;2397;53.576;9.746;2023-05-16T03:32:04;101390.78;;;10.79;70.30
4767;BME280;2397;53.576;9.746;2023-05-16T03:34:31;101393.38;;;10.70;69.74
4767;BME280;2397;53.576;9.746;2023-05-16T03:36:58;101390.44;;;10.63;70.29
4767;BME280;2397;53.576;9.746;2023-05-16T03:39:25;101398.38;;;10.63;70.06
4767;BME280;2397;53.576;9.746;2023-05-16T03:41:52;101399.75;;;10.67;69.93
4767;BME280;2397;53.576;9.746;2023-05-16T03:44:21;101401.13;;;10.62;69.06
4767;BME280;2397;53.576;9.746;2023-05-16T03:46:48;101407.25;;;10.53;69.34
4767;BME280;2397;53.576;9.746;2023-05-16T03:49:16;101407.94;;;10.55;69.62
4767;BME280;2397;53.576;9.746;2023-05-16T03:51:43;101393.34;;;10.51;69.15
4767;BME280;2397;53.576;9.746;2023-05-16T03:54:10;101416.94;;;10.52;68.97
4767;BME280;2397;53.576;9.746;2023-05-16T03:56:36;101409.16;;;10.51;68.83
4767;BME280;2397;53.576;9.746;2023-05-16T03:59:02;101414.56;;;10.49;68.62
4767;BME280;2397;53.576;9.746;2023-05-16T04:01:29;101427.22;;;10.46;68.58
4767;BME280;2397;53.576;9.746;2023-05-16T04:03:56;101421.94;;;10.46;68.83
4767;BME280;2397;53.576;9.746;2023-05-16T04:06:22;101428.88;;;10.47;69.52
4767;BME280;2397;53.576;9.746;2023-05-16T04:08:49;101439.69;;;10.43;68.97
4767;BME280;2397;53.576;9.746;2023-05-16T04:11:15;101431.78;;;10.43;69.02
4767;BME280;2397;53.576;9.746;2023-05-16T04:13:42;101434.97;;;10.38;68.73
4767;BME280;2397;53.576;9.746;2023-05-16T04:16:08;101435.00;;;10.47;68.21
4767;BME280;2397;53.576;9.746;2023-05-16T04:18:35;101434.97;;;10.38;68.29
4767;BME280;2397;53.576;9.746;2023-05-16T04:21:02;101440.72;;;10.22;68.85
4767;BME280;2397;53.576;9.746;2023-05-16T04:23:28;101449.63;;;10.21;68.18
4767;BME280;2397;53.576;9.746;2023-05-16T04:25:55;101444.75;;;10.26;67.97
4767;BME280;2397;53.576;9.746;2023-05-16T04:28:22;101452.13;;;10.22;68.25
4767;BME280;2397;53.576;9.746;2023-05-16T04:30:48;101454.75;;;10.22;68.16
4767;BME280;2397;53.576;9.746;2023-05-16T04:33:16;101457.91;;;10.16;68.55
4767;BME280;2397;53.576;9.746;2023-05-16T04:35:42;101459.00;;;10.14;68.67
4767;BME280;2397;53.576;9.746;2023-05-16T04:38:09;101460.81;;;10.13;68.22
4767;BME280;2397;53.576;9.746;2023-05-16T04:40:35;101462.94;;;10.19;68.62
4767;BME280;2397;53.576;9.746;2023-05-16T04:43:02;101464.34;;;10.23;67.86
4767;BME280;2397;53.576;9.746;2023-05-16T04:45:29;101472.97;;;10.25;67.56
4767;BME280;2397;53.576;9.746;2023-05-16T04:47:56;101466.72;;;10.26;67.60
4767;BME280;2397;53.576;9.746;2023-05-16T04:50:22;101472.25;;;10.23;67.33
4767;BME280;2397;53.576;9.746;2023-05-16T04:52:49;101467.94;;;10.22;67.57
4767;BME280;2397;53.576;9.746;2023-05-16T04:55:16;101471.41;;;10.23;67.19
4767;BME280;2397;53.576;9.746;2023-05-16T04:57:42;101465.69;;;10.18;66.95
4767;BME280;2397;53.576;9.746;2023-05-16T05:00:09;101477.72;;;10.11;66.88
4767;BME280;2397;53.576;9.746;2023-05-16T05:02:37;101484.66;;;10.12;67.48
4767;BME280;2397;53.576;9.746;2023-05-16T05:05:05;101489.06;;;10.22;66.75
4767;BME280;2397;53.576;9.746;2023-05-16T05:07:32;101485.94;;;10.17;66.89
4767;BME280;2397;53.576;9.746;2023-05-16T05:09:58;101474.84;;;10.14;66.18
4767;BME280;2397;53.576;9.746;2023-05-16T05:12:25;101490.84;;;10.22;65.88
4767;BME280;2397;53.576;9.746;2023-05-16T05:14:53;101487.94;;;10.25;65.71
4767;BME280;2397;53.576;9.746;2023-05-16T05:17:20;101484.94;;;10.29;65.09
4767;BME280;2397;53.576;9.746;2023-05-16T05:19:47;101501.84;;;10.27;65.37
4767;BME280;2397;53.576;9.746;2023-05-16T05:22:13;101492.91;;;10.18;65.67
4767;BME280;2397;53.576;9.746;2023-05-16T05:24:40;101498.19;;;10.18;66.38
4767;BME280;2397;53.576;9.746;2023-05-16T05:27:06;101497.41;;;10.27;65.67
4767;BME280;2397;53.576;9.746;2023-05-16T05:29:33;101494.38;;;10.32;65.17
4767;BME280;2397;53.576;9.746;2023-05-16T05:31:59;101499.25;;;10.36;65.05
4767;BME280;2397;53.576;9.746;2023-05-16T05:34:26;101505.41;;;10.47;64.75
4767;BME280;2397;53.576;9.746;2023-05-16T05:36:53;101505.06;;;10.61;63.67
4767;BME280;2397;53.576;9.746;2023-05-16T05:39:19;101508.47;;;10.72;63.00
4767;BME280;2397;53.576;9.746;2023-05-16T05:41:46;101500.41;;;10.74;62.59
4767;BME280;2397;53.576;9.746;2023-05-16T05:44:12;101514.03;;;10.79;62.54
4767;BME280;2397;53.576;9.746;2023-05-16T05:46:39;101521.81;;;10.80;61.83
4767;BME280;2397;53.576;9.746;2023-05-16T05:49:06;101510.56;;;10.88;62.12
4767;BME280;2397;53.576;9.746;2023-05-16T05:51:33;101521.84;;;10.90;61.25
4767;BME280;2397;53.576;9.746;2023-05-16T05:54:00;101522.34;;;10.74;62.24
4767;BME280;2397;53.576;9.746;2023-05-16T05:56:26;101517.66;;;10.78;62.48
4767;BME280;2397;53.576;9.746;2023-05-16T05:58:53;101517.97;;;10.94;63.10
4767;BME280;2397;53.576;9.746;2023-05-16T06:01:20;101525.91;;;10.94;62.95
4767;BME280;2397;53.576;9.746;2023-05-16T06:03:47;101520.41;;;10.76;62.68
4767;BME280;2397;53.576;9.746;2023-05-16T06:06:14;101523.09;;;10.86;63.40
4767;BME280;2397;53.576;9.746;2023-05-16T06:08:40;101531.81;;;10.77;63.30
4767;BME280;2397;53.576;9.746;2023-05-16T06:11:07;101534.88;;;10.72;63.21
4767;BME280;2397;53.576;9.746;2023-05-16T06:13:34;101524.69;;;10.68;62.65
4767;BME280;2397;53.576;9.746;2023-05-16T06:16:00;101528.78;;;10.81;62.63
4767;BME280;2397;53.576;9.746;2023-05-16T06:18:27;101525.91;;;10.94;61.38
4767;BME280;2397;53.576;9.746;2023-05-16T06:20:55;101524.03;;;11.15;60.90
4767;BME280;2397;53.576;9.746;2023-05-16T06:23:21;101521.94;;;11.28;59.24
4767;BME280;2397;53.576;9.746;2023-05-16T06:25:48;101531.72;;;11.46;59.40
4767;BME280;2397;53.576;9.746;2023-05-16T06:28:14;101537.56;;;11.50;59.10
4767;BME280;2397;53.576;9.746;2023-05-16T06:30:41;101539.78;;;11.45;59.00
4767;BME280;2397;53.576;9.746;2023-05-16T06:33:07;101534.09;;;11.49;58.26
4767;BME280;2397;53.576;9.746;2023-05-16T06:35:34;101533.09;;;11.41;57.80
4767;BME280;2397;53.576;9.746;2023-05-16T06:38:00;101534.34;;;11.37;57.59
4767;BME280;2397;53.576;9.746;2023-05-16T06:40:27;101545.06;;;11.45;57.94
4767;BME280;2397;53.576;9.746;2023-05-16T06:42:53;101548.97;;;11.60;56.39
4767;BME280;2397;53.576;9.746;2023-05-16T06:45:20;101540.38;;;11.77;56.88
4767;BME280;2397;53.576;9.746;2023-05-16T06:47:46;101541.91;;;11.98;56.14
4767;BME280;2397;53.576;9.746;2023-05-16T06:50:13;101552.34;;;12.09;56.12
4767;BME280;2397;53.576;9.746;2023-05-16T06:52:39;101552.84;;;12.32;56.09
4767;BME280;2397;53.576;9.746;2023-05-16T06:55:08;101552.16;;;12.39;55.43
4767;BME280;2397;53.576;9.746;2023-05-16T06:57:34;101551.50;;;12.18;53.44
4767;BME280;2397;53.576;9.746;2023-05-16T07:00:01;101555.09;;;12.27;54.06
4767;BME280;2397;53.576;9.746;2023-05-16T07:02:28;101565.25;;;12.41;54.16
4767;BME280;2397;53.576;9.746;2023-05-16T07:04:54;101560.53;;;12.35;53.15
4767;BME280;2397;53.576;9.746;2023-05-16T07:07:21;101567.78;;;12.33;53.86
4767;BME280;2397;53.576;9.746;2023-05-16T07:09:47;101562.88;;;12.38;51.51
4767;BME280;2397;53.576;9.746;2023-05-16T07:12:14;101566.00;;;11.95;51.77
4767;BME280;2397;53.576;9.746;2023-05-16T07:14:40;101573.78;;;12.16;51.85
4767;BME280;2397;53.576;9.746;2023-05-16T07:17:09;101567.91;;;12.41;52.56
4767;BME280;2397;53.576;9.746;2023-05-16T07:19:36;101574.03;;;12.51;52.79
4767;BME280;2397;53.576;9.746;2023-05-16T07:22:02;101568.53;;;12.71;52.72
4767;BME280;2397;53.576;9.746;2023-05-16T07:24:29;101578.13;;;12.72;52.67
4767;BME280;2397;53.576;9.746;2023-05-16T07:26:55;101576.53;;;12.33;51.71
4767;BME280;2397;53.576;9.746;2023-05-16T07:29:22;101570.31;;;12.06;51.91
4767;BME280;2397;53.576;9.746;2023-05-16T07:31:48;101584.78;;;12.11;52.68
4767;BME280;2397;53.576;9.746;2023-05-16T07:34:15;101586.47;;;12.22;54.29
4767;BME280;2397;53.576;9.746;2023-05-16T07:36:42;101594.84;;;12.08;56.10
4767;BME280;2397;53.576;9.746;2023-05-16T07:39:09;101596.09;;;11.85;56.83
4767;BME280;2397;53.576;9.746;2023-05-16T07:41:35;101597.16;;;11.63;56.44
4767;BME280;2397;53.576;9.746;2023-05-16T07:44:02;101591.88;;;11.73;56.29
4767;BME280;2397;53.576;9.746;2023-05-16T07:46:28;101598.03;;;11.92;55.98
4767;BME280;2397;53.576;9.746;2023-05-16T07:48:55;101584.53;;;12.05;53.83
4767;BME280;2397;53.576;9.746;2023-05-16T07:51:21;101590.50;;;12.26;53.48
4767;BME280;2397;53.576;9.746;2023-05-16T07:53:48;101583.19;;;12.47;52.12
4767;BME280;2397;53.576;9.746;2023-05-16T07:56:14;101574.66;;;12.62;53.10
4767;BME280;2397;53.576;9.746;2023-05-16T07:58:41;101574.75;;;12.80;51.71
4767;BME280;2397;53.576;9.746;2023-05-16T08:01:08;101583.56;;;12.71;52.45
4767;BME280;2397;53.576;9.746;2023-05-16T08:03:34;101589.47;;;12.55;52.27
4767;BME280;2397;53.576;9.746;2023-05-16T08:06:02;101597.19;;;12.20;52.92
4767;BME280;2397;53.576;9.746;2023-05-16T08:08:28;101589.69;;;11.97;51.29
4767;BME280;2397;53.576;9.746;2023-05-16T08:10:55;101596.63;;;11.88;52.94
4767;BME280;2397;53.576;9.746;2023-05-16T08:13:21;101606.09;;;12.10;53.23
4767;BME280;2397;53.576;9.746;2023-05-16T08:15:48;101598.31;;;12.18;54.01
4767;BME280;2397;53.576;9.746;2023-05-16T08:18:15;101612.69;;;12.80;55.06
4767;BME280;2397;53.576;9.746;2023-05-16T08:20:42;101609.91;;;13.18;53.39
4767;BME280;2397;53.576;9.746;2023-05-16T08:23:08;101600.91;;;13.02;53.40
4767;BME280;2397;53.576;9.746;2023-05-16T08:25:36;101604.50;;;13.10;54.32
4767;BME280;2397;53.576;9.746;2023-05-16T08:28:03;101603.69;;;12.91;53.62
4767;BME280;2397;53.576;9.746;2023-05-16T08:30:29;101611.81;;;12.89;52.44
4767;BME280;2397;53.576;9.746;2023-05-16T08:32:56;101619.72;;;12.43;51.80
4767;BME280;2397;53.576;9.746;2023-05-16T08:35:22;101611.84;;;12.70;52.04
4767;BME280;2397;53.576;9.746;2023-05-16T08:37:49;101599.28;;;12.82;51.10
4767;BME280;2397;53.576;9.746;2023-05-16T08:40:16;101610.41;;;12.95;51.85
4767;BME280;2397;53.576;9.746;2023-05-16T08:42:42;101587.53;;;13.30;47.99
4767;BME280;2397;53.576;9.746;2023-05-16T08:45:10;101588.34;;;13.31;47.91
4767;BME280;2397;53.576;9.746;2023-05-16T08:47:38;101573.16;;;13.50;46.46
4767;BME280;2397;53.576;9.746;2023-05-16T08:50:08;101579.69;;;13.56;46.32
4767;BME280;2397;53.576;9.746;2023-05-16T08:52:37;101563.72;;;13.65;45.96
4767;BME280;2397;53.576;9.746;2023-05-16T08:55:04;101564.03;;;13.98;46.55
4767;BME280;2397;53.576;9.746;2023-05-16T08:57:37;101566.22;;;14.02;44.77
4767;BME280;2397;53.576;9.746;2023-05-16T09:00:07;101564.03;;;13.80;45.29
4767;BME280;2397;53.576;9.746;2023-05-16T09:02:39;101566.56;;;13.54;44.78
4767;BME280;2397;53.576;9.746;2023-05-16T09:05:08;101564.16;;;13.61;44.28
4767;BME280;2397;53.576;9.746;2023-05-16T09:07:36;101568.72;;;13.51;44.58
4767;BME280;2397;53.576;9.746;2023-05-16T09:10:03;101580.41;;;13.58;44.96
4767;BME280;2397;53.576;9.746;2023-05-16T09:12:33;101578.97;;;13.81;45.35
4767;BME280;2397;53.576;9.746;2023-05-16T09:15:02;101582.44;;;13.99;46.21
4767;BME280;2397;53.576;9.746;2023-05-16T09:22:37;101578.88;;;13.91;45.99
4767;BME280;2397;53.576;9.746;2023-05-16T09:25:05;101582.78;;;13.51;46.37
4767;BME280;2397;53.576;9.746;2023-05-16T09:27:39;101588.66;;;13.55;47.07
4767;BME280;2397;53.576;9.746;2023-05-16T09:30:06;101593.75;;;13.39;47.12
4767;BME280;2397;53.576;9.746;2023-05-16T09:32:33;101601.38;;;13.24;48.48
4767;BME280;2397;53.576;9.746;2023-05-16T09:35:00;101597.25;;;13.12;48.06
4767;BME280;2397;53.576;9.746;2023-05-16T09:37:26;101592.22;;;12.73;49.08
4767;BME280;2397;53.576;9.746;2023-05-16T09:39:53;101600.72;;;12.67;50.30
4767;BME280;2397;53.576;9.746;2023-05-16T09:42:24;101609.38;;;13.15;50.14
4767;BME280;2397;53.576;9.746;2023-05-16T09:44:52;101613.91;;;13.32;50.38
4767;BME280;2397;53.576;9.746;2023-05-16T09:47:20;101628.50;;;13.09;52.01
4767;BME280;2397;53.576;9.746;2023-05-16T09:49:51;101643.97;;;12.48;55.72
4767;BME280;2397;53.576;9.746;2023-05-16T09:52:18;101654.84;;;11.98;59.46
4767;BME280;2397;53.576;9.746;2023-05-16T09:54:45;101651.06;;;11.81;59.23
4767;BME280;2397;53.576;9.746;2023-05-16T09:57:19;101637.25;;;11.68;55.30
4767;BME280;2397;53.576;9.746;2023-05-16T09:59:45;101637.81;;;11.72;55.23
4767;BME280;2397;53.576;9.746;2023-05-16T10:02:12;101620.00;;;11.64;51.79
4767;BME280;2397;53.576;9.746;2023-05-16T10:04:39;101619.16;;;11.73;51.75
4767;BME280;2397;53.576;9.746;2023-05-16T10:07:07;101621.28;;;11.89;51.47
4767;BME280;2397;53.576;9.746;2023-05-16T10:09:35;101632.41;;;12.11;52.67
4767;BME280;2397;53.576;9.746;2023-05-16T10:12:05;101634.44;;;12.65;51.72
4767;BME280;2397;53.576;9.746;2023-05-16T10:14:35;101623.94;;;13.28;51.64
4767;BME280;2397;53.576;9.746;2023-05-16T10:17:03;101625.66;;;13.74;50.92
4767;BME280;2397;53.576;9.746;2023-05-16T10:19:36;101637.91;;;13.30;53.01
4767;BME280;2397;53.576;9.746;2023-05-16T10:22:05;101641.19;;;13.42;54.27
4767;BME280;2397;53.576;9.746;2023-05-16T10:24:41;101625.47;;;13.58;50.90
4767;BME280;2397;53.576;9.746;2023-05-16T10:27:09;101621.59;;;13.25;49.92
4767;BME280;2397;53.576;9.746;2023-05-16T10:29:36;101631.06;;;12.82;49.99
4767;BME280;2397;53.576;9.746;2023-05-16T10:32:20;101632.47;;;12.86;50.36
4767;BME280;2397;53.576;9.746;2023-05-16T10:34:49;101642.88;;;12.51;49.84
4767;BME280;2397;53.576;9.746;2023-05-16T10:37:16;101673.53;;;12.25;52.97
4767;BME280;2397;53.576;9.746;2023-05-16T10:39:43;101671.81;;;11.86;57.79
4767;BME280;2397;53.576;9.746;2023-05-16T10:42:10;101667.00;;;11.61;60.79
4767;BME280;2397;53.576;9.746;2023-05-16T10:44:38;101670.28;;;11.44;60.42
4767;BME280;2397;53.576;9.746;2023-05-16T10:47:05;101672.53;;;11.58;61.69
4767;BME280;2397;53.576;9.746;2023-05-16T10:49:32;101675.25;;;11.77;58.11
4767;BME280;2397;53.576;9.746;2023-05-16T10:52:08;101676.59;;;12.11;57.95
4767;BME280;2397;53.576;9.746;2023-05-16T10:54:42;101666.53;;;12.05;54.24
4767;BME280;2397;53.576;9.746;2023-05-16T10:57:22;101672.69;;;12.05;58.11
4767;BME280;2397;53.576;9.746;2023-05-16T10:59:50;101667.06;;;11.99;54.92
4767;BME280;2397;53.576;9.746;2023-05-16T11:02:31;101665.16;;;12.01;54.47
4767;BME280;2397;53.576;9.746;2023-05-16T11:05:02;101654.56;;;12.20;51.70
4767;BME280;2397;53.576;9.746;2023-05-16T11:07:33;101670.00;;;12.72;51.82
4767;BME280;2397;53.576;9.746;2023-05-16T11:10:14;101655.03;;;13.63;51.37
4767;BME280;2397;53.576;9.746;2023-05-16T11:12:43;101651.69;;;13.34;48.93
4767;BME280;2397;53.576;9.746;2023-05-16T11:15:24;101654.63;;;13.31;50.44
4767;BME280;2397;53.576;9.746;2023-05-16T11:18:14;101660.19;;;13.01;51.20
4767;BME280;2397;53.576;9.746;2023-05-16T11:20:42;101655.19;;;12.79;50.32
4767;BME280;2397;53.576;9.746;2023-05-16T11:25:45;101655.63;;;13.57;50.43
4767;BME280;2397;53.576;9.746;2023-05-16T11:28:12;101657.03;;;13.79;49.99
4767;BME280;2397;53.576;9.746;2023-05-16T11:30:44;101646.00;;;14.18;48.32
4767;BME280;2397;53.576;9.746;2023-05-16T11:33:11;101645.41;;;14.67;47.30
4767;BME280;2397;53.576;9.746;2023-05-16T11:35:38;101644.44;;;14.68;46.50
4767;BME280;2397;53.576;9.746;2023-05-16T11:38:05;101629.22;;;14.78;44.13
4767;BME280;2397;53.576;9.746;2023-05-16T11:40:32;101639.22;;;15.35;45.39
4767;BME280;2397;53.576;9.746;2023-05-16T11:42:59;101639.66;;;15.31;44.14
4767;BME280;2397;53.576;9.746;2023-05-16T11:45:31;101638.69;;;15.73;42.44
4767;BME280;2397;53.576;9.746;2023-05-16T11:48:01;101638.94;;;14.87;42.64
4767;BME280;2397;53.576;9.746;2023-05-16T11:50:29;101648.31;;;14.99;43.81
4767;BME280;2397;53.576;9.746;2023-05-16T11:52:56;101645.75;;;15.49;44.90
4767;BME280;2397;53.576;9.746;2023-05-16T11:55:25;101661.84;;;15.39;46.28
4767;BME280;2397;53.576;9.746;2023-05-16T11:58:07;101663.31;;;14.57;47.61
4767;BME280;2397;53.576;9.746;2023-05-16T12:00:35;101688.47;;;14.53;48.34
4767;BME280;2397;53.576;9.746;2023-05-16T12:03:03;101696.75;;;14.68;46.78
4767;BME280;2397;53.576;9.746;2023-05-16T12:05:32;101684.94;;;14.88;44.93
4767;BME280;2397;53.576;9.746;2023-05-16T12:08:01;101695.16;;;15.00;48.60
4767;BME280;2397;53.576;9.746;2023-05-16T12:10:30;101682.66;;;14.50;46.07
4767;BME280;2397;53.576;9.746;2023-05-16T12:12:57;101698.41;;;14.16;47.80
4767;BME280;2397;53.576;9.746;2023-05-16T12:15:23;101699.03;;;13.83;49.53
4767;BME280;2397;53.576;9.746;2023-05-16T12:17:51;101692.75;;;14.46;47.65
4767;BME280;2397;53.576;9.746;2023-05-16T12:20:18;101688.69;;;15.03;47.83
4767;BME280;2397;53.576;9.746;2023-05-16T12:22:45;101679.09;;;15.10;46.30
4767;BME280;2397;53.576;9.746;2023-05-16T12:25:29;101683.72;;;16.16;45.76
4767;BME280;2397;53.576;9.746;2023-05-16T12:27:59;101686.97;;;15.19;46.00
4767;BME280;2397;53.576;9.746;2023-05-16T12:30:31;101692.28;;;15.19;45.92
4767;BME280;2397;53.576;9.746;2023-05-16T12:32:59;101691.66;;;15.25;46.45
4767;BME280;2397;53.576;9.746;2023-05-16T12:35:32;101700.41;;;14.67;48.01
4767;BME280;2397;53.576;9.746;2023-05-16T12:38:02;101706.16;;;14.27;49.27
4767;BME280;2397;53.576;9.746;2023-05-16T12:40:29;101749.44;;;13.56;55.02
4767;BME280;2397;53.576;9.746;2023-05-16T12:42:57;101770.19;;;12.19;63.33
4767;BME280;2397;53.576;9.746;2023-05-16T12:45:25;101755.81;;;11.63;66.55
4767;BME280;2397;53.576;9.746;2023-05-16T12:47:53;101743.19;;;11.76;66.99
4767;BME280;2397;53.576;9.746;2023-05-16T12:50:20;101737.34;;;12.41;63.72
4767;BME280;2397;53.576;9.746;2023-05-16T12:52:49;101738.44;;;12.67;65.54
4767;BME280;2397;53.576;9.746;2023-05-16T12:55:22;101739.84;;;12.99;61.48
4767;BME280;2397;53.576;9.746;2023-05-16T12:57:49;101734.09;;;13.59;60.49
4767;BME280;2397;53.576;9.746;2023-05-16T13:00:18;101731.25;;;14.15;58.18
4767;BME280;2397;53.576;9.746;2023-05-16T13:02:46;101721.41;;;14.60;54.83
4767;BME280;2397;53.576;9.746;2023-05-16T13:05:13;101711.41;;;15.48;53.96
4767;BME280;2397;53.576;9.746;2023-05-16T13:07:40;101717.63;;;15.98;52.74
4767;BME280;2397;53.576;9.746;2023-05-16T13:10:08;101712.59;;;15.95;50.35
4767;BME280;2397;53.576;9.746;2023-05-16T13:12:37;101728.56;;;14.42;50.15
4767;BME280;2397;53.576;9.746;2023-05-16T13:15:05;101742.84;;;13.33;50.15
4767;BME280;2397;53.576;9.746;2023-05-16T13:17:33;101749.47;;;13.10;50.84
4767;BME280;2397;53.576;9.746;2023-05-16T13:20:01;101748.06;;;13.52;50.52
4767;BME280;2397;53.576;9.746;2023-05-16T13:22:28;101759.38;;;13.44;49.61
4767;BME280;2397;53.576;9.746;2023-05-16T13:24:55;101752.84;;;13.39;49.63
4767;BME280;2397;53.576;9.746;2023-05-16T13:27:21;101752.38;;;13.90;48.39